Ciclone tropical HELLEN 2014: trajetória, intensidade e histórico
5/04/2014, 06:00:00
26/03/2014, 12:00:00 – 5/04/2014, 06:00:00
Trajetória histórica
Acompanhe a evolução e o deslocamento de Ciclone tropical HELLEN em 2014, com a trajetória completa registrada, ventos máximos sustentados de 130 nós, pressão central mínima e cronologia detalhada.
| Data | Hora | Tipo | Ventokm/h | PressãohPa |
|---|---|---|---|---|
| 05/04 | 06:00 | TCCiclone tropical | -- | -- |
| 05/04 | 03:00 | TDDepressão tropical | -- | -- |
| 05/04 | 00:00 | VITCCiclone tropical muito intenso | 30 | 1013 |
| 04/04 | 21:00 | TDDepressão tropical | 30 | 1013 |
| 04/04 | 18:00 | VITCCiclone tropical muito intenso | 30 | 1013 |
| 04/04 | 15:00 | TDDepressão tropical | 30 | 1013 |
| 04/04 | 12:00 | TCCiclone tropical | 30 | 1012 |
| 04/04 | 09:00 | TDDepressão tropical | 35 | 1012 |
| 04/04 | 06:00 | TCCiclone tropical | 35 | 1011 |
| 04/04 | 03:00 | TDDepressão tropical | 35 | 1011 |
| 04/04 | 00:00 | TCCiclone tropical | 35 | 1010 |
| 03/04 | 21:00 | TDDepressão tropical | 35 | 1010 |
| 03/04 | 18:00 | TCCiclone tropical | 35 | 1009 |
| 03/04 | 15:00 | TDDepressão tropical | 35 | 1009 |
| 03/04 | 12:00 | TCCiclone tropical | 35 | 1009 |
| 03/04 | 09:00 | TDDepressão tropical | 35 | 1009 |
| 03/04 | 06:00 | TCCiclone tropical | 35 | 1009 |
| 03/04 | 03:00 | TDDepressão tropical | 35 | 1009 |
| 03/04 | 00:00 | TCCiclone tropical | 35 | 1009 |
| 02/04 | 21:00 | TDDepressão tropical | 35 | 1009 |
| 02/04 | 18:00 | TCCiclone tropical | 35 | 1009 |
| 02/04 | 15:00 | TDDepressão tropical | 40 | 1009 |
| 02/04 | 12:00 | TCCiclone tropical | 45 | 1008 |
| 02/04 | 09:00 | TDDepressão tropical | 45 | 1008 |
| 02/04 | 06:00 | TCCiclone tropical | 45 | 1008 |
| 02/04 | 03:00 | TDDepressão tropical | 45 | 1008 |
| 02/04 | 00:00 | TCCiclone tropical | 45 | 1007 |
| 01/04 | 21:00 | TDDepressão tropical | 45 | 1007 |
| 01/04 | 18:00 | TCCiclone tropical | 45 | 1007 |
| 01/04 | 15:00 | TDDepressão tropical | 45 | 1006 |
| 01/04 | 12:00 | TCCiclone tropical | 45 | 1004 |
| 01/04 | 09:00 | TDDepressão tropical | 50 | 1002 |
| 01/04 | 06:00 | TCCiclone tropical | 55 | 1000 |
| 01/04 | 03:00 | TSTempestade tropical | 65 | 997 |
| 01/04 | 00:00 | TCCiclone tropical | 75 | 993 |
| 31/03 | 21:00 | TSTempestade tropical | 95 | 986 |
| 31/03 | 18:00 | VITCCiclone tropical muito intenso | 110 | 978 |
| 31/03 | 15:00 | TCCiclone tropical | 125 | 973 |
| 31/03 | 12:00 | TDDepressão tropical | 140 | 967 |
| 31/03 | 09:00 | TCCiclone tropical | 165 | 958 |
| 31/03 | 06:00 | TDDepressão tropical | 185 | 948 |
| 31/03 | 03:00 | TCCiclone tropical | 210 | 939 |
| 31/03 | 00:00 | MTSTempestade tropical moderada | 230 | 929 |
| 30/03 | 21:00 | TCCiclone tropical | 235 | 928 |
| 30/03 | 18:00 | MTSTempestade tropical moderada | 240 | 926 |
| 30/03 | 15:00 | TCCiclone tropical | 240 | 926 |
| 30/03 | 12:00 | MTSTempestade tropical moderada | 240 | 926 |
| 30/03 | 09:00 | TCCiclone tropical | 230 | 932 |
| 30/03 | 06:00 | MTSTempestade tropical moderada | 215 | 937 |
| 30/03 | 03:00 | TCCiclone tropical | 190 | 947 |
| 30/03 | 00:00 | MTSTempestade tropical moderada | 165 | 956 |
| 29/03 | 21:00 | TCCiclone tropical | 145 | 965 |
| 29/03 | 18:00 | TDDepressão tropical | 120 | 974 |
| 29/03 | 15:00 | TSTempestade tropical | 110 | 978 |
| 29/03 | 12:00 | TDDepressão tropical | 100 | 982 |
| 29/03 | 09:00 | TSTempestade tropical | 95 | 986 |
| 29/03 | 06:00 | TDDepressão tropical | 85 | 989 |
| 29/03 | 03:00 | TSTempestade tropical | 80 | 991 |
| 29/03 | 00:00 | TDDepressão tropical | 75 | 993 |
| 28/03 | 21:00 | TSTempestade tropical | 70 | 995 |
| 28/03 | 18:00 | DBPerturbação tropical | 65 | 996 |
| 28/03 | 15:00 | TDDepressão tropical | 60 | 998 |
| 28/03 | 12:00 | DBPerturbação tropical | 55 | 1000 |
| 28/03 | 09:00 | TDDepressão tropical | 55 | 1000 |
| 28/03 | 06:00 | DBPerturbação tropical | 55 | 1000 |
| 28/03 | 03:00 | TDDepressão tropical | 55 | 1000 |
| 28/03 | 00:00 | DBPerturbação tropical | 55 | 1000 |
| 27/03 | 21:00 | TDDepressão tropical | 50 | 1002 |
| 27/03 | 18:00 | DBPerturbação tropical | 45 | 1004 |
| 27/03 | 15:00 | TDDepressão tropical | 45 | 1004 |
| 27/03 | 12:00 | DBPerturbação tropical | 45 | 1004 |
| 27/03 | 09:00 | DBPerturbação tropical | 45 | 1006 |
| 27/03 | 06:00 | DBPerturbação tropical | 35 | 1007 |
| 27/03 | 03:00 | TDDepressão tropical | 30 | 1008 |
| 27/03 | 00:00 | DBPerturbação tropical | 30 | 1007 |
| 26/03 | 21:00 | TDDepressão tropical | 30 | 1007 |
| 26/03 | 18:00 | DBPerturbação tropical | 30 | 1007 |
| 26/03 | 15:00 | TDDepressão tropical | 30 | 1007 |
| 26/03 | 12:00 | DBPerturbação tropical | 30 | 1007 |
Cronologia de localização
79 Registos de localizaçãoDesastres naturais próximos
Detalhes do evento
Ligações das fontes
Também pode encontrar estas ferramentas úteis
A localização, a extensão e o estado de cada evento podem ser atualizados em momentos diferentes consoante a fonte. Confirme decisões importantes junto das autoridades oficiais de emergência.
Os registos de eventos provêm da NASA EONET e são complementados por registos de deslizamentos de terra do USGS FDSN. As análises e previsões de tempestades podem utilizar a NOAA NHC ou o JTWC, com registos históricos ATCF da UCAR/NCAR quando disponíveis. As imagens de satélite provêm da NASA Worldview/GIBS (GOES e Himawari) ou da EUMETSAT Meteosat, consoante a cobertura do mapa.
Fontes: NASA EONET · USGS · NOAA NHC · JTWC · UCAR/NCAR ATCF · NASA Worldview/GIBS · EUMETSAT Meteosat · OpenStreetMap contributors